createdAt,value
2022-08-30T00:00:14.634Z,100029.84
2022-08-30T00:01:25.895Z,100032.55
2022-08-30T00:02:28.819Z,100031.18
2022-08-30T00:03:33.969Z,100029.82
2022-08-30T00:04:36.579Z,100026.63
2022-08-30T00:05:39.038Z,100025.78
2022-08-30T00:06:41.464Z,100021.55
2022-08-30T00:07:43.765Z,100026.63
2022-08-30T00:08:46.242Z,100030.35
2022-08-30T00:09:48.737Z,100025.12
2022-08-30T00:10:51.352Z,100031.69
2022-08-30T00:11:53.625Z,100038.28
2022-08-30T00:12:56.613Z,100026.30
2022-08-30T00:13:59.262Z,100026.95
2022-08-30T00:15:02.672Z,100028.98
2022-08-30T00:16:06.267Z,100019.19
2022-08-30T00:17:08.576Z,99996.60
2022-08-30T00:18:10.997Z,100026.63
2022-08-30T00:19:13.416Z,100032.02
2022-08-30T00:20:19.675Z,100026.63
2022-08-30T00:21:22.858Z,100023.76
2022-08-30T00:22:25.009Z,100020.56
2022-08-30T00:23:27.308Z,100020.56
2022-08-30T00:24:30.270Z,100017.53
2022-08-30T00:25:32.689Z,100023.76
2022-08-30T00:26:35.727Z,100025.45
2022-08-30T00:27:38.902Z,100029.66
2022-08-30T00:28:41.164Z,100027.98
2022-08-30T00:29:43.401Z,100026.63
2022-08-30T00:30:46.997Z,100026.95
2022-08-30T00:31:49.750Z,100024.22
2022-08-30T00:32:52.009Z,100031.10
2022-08-30T00:33:54.356Z,100021.86
2022-08-30T00:34:57.048Z,100023.19
2022-08-30T00:36:00.198Z,100019.16
2022-08-30T00:37:02.671Z,100021.35
2022-08-30T00:38:05.732Z,100028.74
2022-08-30T00:39:08.053Z,100021.69
2022-08-30T00:40:11.782Z,100004.62
2022-08-30T00:41:14.201Z,100018.48
2022-08-30T00:42:18.498Z,100026.58
2022-08-30T00:43:24.344Z,100028.57
2022-08-30T00:44:28.675Z,100024.52
2022-08-30T00:45:33.776Z,100026.37
2022-08-30T00:46:36.347Z,100027.91
2022-08-30T00:47:38.901Z,100031.58
2022-08-30T00:48:44.488Z,100029.93
2022-08-30T00:49:50.819Z,100029.75
2022-08-30T00:52:06.967Z,100029.77
2022-08-30T00:53:12.952Z,100026.53
2022-08-30T00:54:16.289Z,100030.92
2022-08-30T00:55:20.449Z,100026.45
2022-08-30T00:56:25.186Z,100032.05
2022-08-30T00:57:27.754Z,100031.08
2022-08-30T00:58:36.474Z,100031.42
2022-08-30T00:59:39.315Z,100030.23
2022-08-30T01:00:41.980Z,100032.95
2022-08-30T01:01:44.928Z,100032.94
2022-08-30T01:02:47.669Z,100032.78
2022-08-30T01:03:52.506Z,100018.08
2022-08-30T01:04:55.021Z,100032.17
2022-08-30T01:05:58.328Z,100037.94
2022-08-30T01:07:00.895Z,100032.70
2022-08-30T01:08:04.049Z,100032.38
2022-08-30T01:09:07.986Z,100039.66
2022-08-30T01:10:12.806Z,100039.66
2022-08-30T01:11:18.821Z,100044.36
2022-08-30T01:12:21.396Z,100047.05
2022-08-30T01:13:26.395Z,100043.87
2022-08-30T01:14:28.857Z,100047.22
2022-08-30T01:15:32.617Z,100044.36
2022-08-30T01:16:36.356Z,100043.71
2022-08-30T01:17:38.985Z,100052.33
2022-08-30T01:18:43.903Z,100050.66
2022-08-30T01:19:50.798Z,100050.20
2022-08-30T01:22:28.177Z,100042.52
2022-08-30T01:23:32.608Z,100042.14
2022-08-30T01:24:35.108Z,100044.33
2022-08-30T01:25:38.359Z,100040.63
2022-08-30T01:26:41.181Z,100038.42
2022-08-30T01:27:46.978Z,100038.97
2022-08-30T01:28:52.926Z,100045.19
2022-08-30T01:29:57.546Z,100041.66
2022-08-30T01:31:00.105Z,100042.81
2022-08-30T01:32:05.460Z,100041.98
2022-08-30T01:33:09.060Z,100034.56
2022-08-30T01:34:12.991Z,100044.66
2022-08-30T01:35:17.902Z,100044.98
2022-08-30T01:36:21.197Z,100038.94
2022-08-30T01:37:27.021Z,100037.91
2022-08-30T01:38:54.326Z,100030.69
2022-08-30T01:39:56.827Z,100043.44
2022-08-30T01:41:02.493Z,100043.92
2022-08-30T01:42:05.503Z,100035.00
2022-08-30T01:43:09.388Z,100042.92
2022-08-30T01:44:12.948Z,100039.88
2022-08-30T01:45:15.462Z,100040.91
2022-08-30T01:46:22.119Z,100044.72
2022-08-30T01:47:24.905Z,100047.64
2022-08-30T01:48:30.873Z,100048.64
2022-08-30T01:49:31.791Z,100048.83
2022-08-30T01:50:35.126Z,100044.14
2022-08-30T01:51:39.966Z,100043.98
2022-08-30T01:52:42.359Z,100040.48
2022-08-30T01:53:45.112Z,100037.95
2022-08-30T01:54:47.782Z,100038.78
2022-08-30T01:55:50.110Z,100031.62
2022-08-30T01:56:52.341Z,100038.71
2022-08-30T01:57:54.875Z,100036.05
2022-08-30T01:59:02.681Z,100042.08
2022-08-30T02:00:06.795Z,100043.14
2022-08-30T02:01:12.202Z,100031.81
2022-08-30T02:02:17.730Z,100042.24
2022-08-30T02:03:20.339Z,100046.80
2022-08-30T02:04:23.179Z,100056.66
2022-08-30T02:05:25.636Z,100043.57
2022-08-30T02:06:28.115Z,100043.57
2022-08-30T02:07:30.648Z,100047.45
2022-08-30T02:08:34.474Z,100051.66
2022-08-30T02:09:37.093Z,100047.66
2022-08-30T02:10:39.606Z,100048.38
2022-08-30T02:11:42.189Z,100053.09
2022-08-30T02:12:44.229Z,100049.09
2022-08-30T02:13:47.207Z,100049.25
2022-08-30T02:14:50.058Z,100044.22
2022-08-30T02:15:52.406Z,100047.27
2022-08-30T02:16:55.007Z,100047.79
2022-08-30T02:17:57.440Z,100048.11
2022-08-30T02:19:02.767Z,100051.98
2022-08-30T02:20:06.896Z,100049.80
2022-08-30T02:21:10.108Z,100049.80
2022-08-30T02:22:12.716Z,100051.11
2022-08-30T02:23:15.299Z,100049.29
2022-08-30T02:24:17.765Z,100052.14
2022-08-30T02:25:20.841Z,100045.69
2022-08-30T02:26:24.310Z,100048.06
2022-08-30T02:27:27.026Z,100056.14
2022-08-30T02:28:29.252Z,100057.64
2022-08-30T02:29:31.826Z,100051.39
2022-08-30T02:30:35.059Z,100053.09
2022-08-30T02:31:37.591Z,100050.70
2022-08-30T02:32:39.755Z,100059.05
2022-08-30T02:33:42.083Z,100057.09
2022-08-30T02:34:44.793Z,100056.09
2022-08-30T02:35:47.159Z,100057.95
2022-08-30T02:36:49.749Z,100053.56
2022-08-30T02:37:52.003Z,100063.45
2022-08-30T02:38:54.248Z,100059.42
2022-08-30T02:39:56.569Z,100067.50
2022-08-30T02:40:59.441Z,100064.59
2022-08-30T02:42:01.635Z,100063.97
2022-08-30T02:43:04.247Z,100066.82
2022-08-30T02:44:07.637Z,100071.07
2022-08-30T02:45:10.931Z,100067.76
2022-08-30T02:46:14.080Z,100070.97
2022-08-30T02:47:16.503Z,100077.91
2022-08-30T02:48:19.184Z,100069.77
2022-08-30T02:49:36.982Z,100080.02
2022-08-30T02:50:26.149Z,100065.10
2022-08-30T02:51:28.513Z,100080.17
2022-08-30T02:52:31.600Z,100077.02
2022-08-30T02:53:34.301Z,100091.19
2022-08-30T02:54:36.597Z,100084.78
2022-08-30T02:55:38.896Z,100080.11
2022-08-30T02:56:41.350Z,100084.99
2022-08-30T02:57:43.724Z,100086.86
2022-08-30T02:58:46.388Z,100089.70
2022-08-30T02:59:49.221Z,100086.25
2022-08-30T03:00:51.786Z,100090.77
2022-08-30T03:01:55.184Z,100087.61
2022-08-30T03:02:59.708Z,100083.32
2022-08-30T03:04:01.967Z,100092.39
2022-08-30T03:05:04.945Z,100081.48
2022-08-30T03:06:08.124Z,100084.63
2022-08-30T03:07:11.024Z,100088.45
2022-08-30T03:08:13.346Z,100084.92
2022-08-30T03:09:15.762Z,100084.99
2022-08-30T03:10:19.852Z,100090.10
2022-08-30T03:11:22.126Z,100088.28
2022-08-30T03:12:26.414Z,100087.99
2022-08-30T03:13:29.507Z,100094.19
2022-08-30T03:14:32.750Z,100089.54
2022-08-30T03:15:37.755Z,100088.23
2022-08-30T03:16:40.367Z,100087.01
2022-08-30T03:17:43.100Z,100093.23
2022-08-30T03:18:45.436Z,100096.53
2022-08-30T03:19:47.850Z,100103.61
2022-08-30T03:20:54.274Z,100091.22
2022-08-30T03:21:55.637Z,100096.60
2022-08-30T03:22:58.027Z,100084.77
2022-08-30T03:24:00.336Z,100099.30
2022-08-30T03:25:04.046Z,100101.30
2022-08-30T03:26:10.345Z,100108.61
2022-08-30T03:27:12.906Z,100099.05
2022-08-30T03:28:15.277Z,100099.97
2022-08-30T03:29:17.642Z,100100.45
2022-08-30T03:30:20.445Z,100100.34
2022-08-30T03:31:22.906Z,100102.58
2022-08-30T03:32:25.365Z,100104.17
2022-08-30T03:33:27.625Z,100102.88
2022-08-30T03:34:29.913Z,100105.12
2022-08-30T03:35:33.241Z,100104.22
2022-08-30T03:36:37.176Z,100104.17
2022-08-30T03:37:40.116Z,100103.87
2022-08-30T03:38:42.422Z,100099.56
2022-08-30T03:39:44.837Z,100104.28
2022-08-30T03:40:47.208Z,100107.06
2022-08-30T03:41:50.233Z,100106.44
2022-08-30T03:42:54.356Z,100113.91
2022-08-30T03:44:00.125Z,100109.06
2022-08-30T03:45:00.810Z,100114.20
2022-08-30T03:46:03.526Z,100113.04
2022-08-30T03:47:06.608Z,100119.50
2022-08-30T03:48:09.057Z,100117.28
2022-08-30T03:49:11.824Z,100111.53
2022-08-30T03:50:15.593Z,100109.75
2022-08-30T03:51:18.403Z,100117.06
2022-08-30T03:52:20.831Z,100120.16
2022-08-30T03:53:25.623Z,100119.50
2022-08-30T03:54:27.535Z,100120.12
2022-08-30T03:55:29.882Z,100120.42
2022-08-30T03:56:33.076Z,100118.05
2022-08-30T03:57:36.615Z,100124.70
2022-08-30T03:58:39.239Z,100125.63
2022-08-30T03:59:41.354Z,100121.41
2022-08-30T04:00:43.908Z,100115.88
2022-08-30T04:01:46.916Z,100117.06
2022-08-30T04:02:49.805Z,100109.04
2022-08-30T04:03:52.100Z,100109.04
2022-08-30T04:04:54.366Z,100127.02
2022-08-30T04:05:56.968Z,100124.97
2022-08-30T04:06:59.721Z,100126.58
2022-08-30T04:08:03.076Z,100126.27
2022-08-30T04:09:07.144Z,100129.91
2022-08-30T04:10:10.622Z,100130.22
2022-08-30T04:11:13.156Z,100136.37
2022-08-30T04:12:18.452Z,100135.06
2022-08-30T04:13:20.726Z,100142.72
2022-08-30T04:14:23.092Z,100135.43
2022-08-30T04:15:25.424Z,100145.97
2022-08-30T04:16:28.497Z,100141.47
2022-08-30T04:17:31.272Z,100143.05
2022-08-30T04:18:33.470Z,100151.36
2022-08-30T04:19:35.797Z,100142.45
2022-08-30T04:20:38.719Z,100143.66
2022-08-30T04:21:42.996Z,100148.07
2022-08-30T04:22:45.333Z,100145.86
2022-08-30T04:23:47.473Z,100136.77
2022-08-30T04:24:49.960Z,100146.43
2022-08-30T04:25:52.328Z,100145.27
2022-08-30T04:26:54.788Z,100140.81
2022-08-30T04:27:57.148Z,100148.25
2022-08-30T04:28:59.137Z,100148.03
2022-08-30T04:30:01.770Z,100146.90
2022-08-30T04:31:13.574Z,100147.12
2022-08-30T04:32:17.866Z,100152.26
2022-08-30T04:33:20.572Z,100159.37
2022-08-30T04:34:23.066Z,100164.75
2022-08-30T04:35:26.278Z,100152.77
2022-08-30T04:36:29.157Z,100157.03
2022-08-30T04:37:31.445Z,100154.83
2022-08-30T04:38:36.127Z,100159.63
2022-08-30T04:39:39.212Z,100160.73
2022-08-30T04:40:46.624Z,100160.83
2022-08-30T04:41:49.426Z,100159.72
2022-08-30T04:42:52.084Z,100161.81
2022-08-30T04:43:54.698Z,100164.80
2022-08-30T04:44:58.271Z,100163.28
2022-08-30T04:46:04.209Z,100167.55
2022-08-30T04:47:06.795Z,100166.21
2022-08-30T04:48:09.141Z,100168.08
2022-08-30T04:49:11.490Z,100166.16
2022-08-30T04:50:17.065Z,100163.22
2022-08-30T04:51:19.831Z,100163.97
2022-08-30T04:52:22.246Z,100168.41
2022-08-30T04:53:24.642Z,100172.37
2022-08-30T04:54:27.152Z,100157.17
2022-08-30T04:55:29.524Z,100173.73
2022-08-30T04:56:32.263Z,100168.66
2022-08-30T04:57:34.828Z,100169.34
2022-08-30T04:58:37.526Z,100169.49
2022-08-30T04:59:39.818Z,100173.64
2022-08-30T05:00:44.188Z,100175.71
2022-08-30T05:01:47.534Z,100180.63
2022-08-30T05:02:50.432Z,100170.67
2022-08-30T05:03:54.334Z,100184.22
2022-08-30T05:04:56.829Z,100182.42
2022-08-30T05:05:59.324Z,100174.09
2022-08-30T05:07:01.802Z,100173.36
2022-08-30T05:08:03.965Z,100173.84
2022-08-30T05:09:06.237Z,100177.69
2022-08-30T05:10:11.527Z,100177.87
2022-08-30T05:11:15.803Z,100179.54
2022-08-30T05:12:18.159Z,100178.09
2022-08-30T05:13:21.135Z,100177.50
2022-08-30T05:14:25.410Z,100175.66
2022-08-30T05:15:27.825Z,100178.92
2022-08-30T05:16:30.312Z,100176.27
2022-08-30T05:17:32.835Z,100168.17
2022-08-30T05:18:35.999Z,100178.38
2022-08-30T05:19:38.461Z,100167.98
2022-08-30T05:20:41.840Z,100158.68
2022-08-30T05:21:44.135Z,100166.11
2022-08-30T05:22:46.713Z,100168.91
2022-08-30T05:23:50.365Z,100170.48
2022-08-30T05:24:52.792Z,100166.36
2022-08-30T05:25:55.161Z,100168.41
2022-08-30T05:26:58.356Z,100171.20
2022-08-30T05:28:00.635Z,100171.69
2022-08-30T05:29:02.930Z,100159.73
2022-08-30T05:30:06.277Z,100169.05
2022-08-30T05:31:20.339Z,100168.84
2022-08-30T05:32:22.936Z,100174.17
2022-08-30T05:33:25.863Z,100161.70
2022-08-30T05:34:29.879Z,100163.34
2022-08-30T05:35:32.326Z,100155.96
2022-08-30T05:36:37.480Z,100158.91
2022-08-30T05:37:40.736Z,100163.43
2022-08-30T05:38:44.415Z,100167.67
2022-08-30T05:39:51.749Z,100155.72
2022-08-30T05:40:52.990Z,100155.44
2022-08-30T05:41:57.227Z,100157.83
2022-08-30T05:43:00.132Z,100156.41
2022-08-30T05:44:04.396Z,100154.98
2022-08-30T05:45:08.080Z,100158.34
2022-08-30T05:46:13.322Z,100163.20
2022-08-30T05:47:15.627Z,100158.04
2022-08-30T05:48:18.414Z,100155.01
2022-08-30T05:49:20.960Z,100158.50
2022-08-30T05:50:25.421Z,100161.48
2022-08-30T05:51:29.593Z,100161.48
2022-08-30T05:53:49.453Z,100161.19
2022-08-30T05:54:54.186Z,100163.06
2022-08-30T05:55:56.792Z,100161.64
2022-08-30T05:56:59.525Z,100164.34
2022-08-30T05:58:01.868Z,100157.89
2022-08-30T05:59:06.066Z,100162.64
2022-08-30T06:00:12.232Z,100168.97
2022-08-30T06:01:24.357Z,100164.08
2022-08-30T06:02:27.200Z,100159.37
2022-08-30T06:03:29.664Z,100165.89
2022-08-30T06:04:32.154Z,100160.97
2022-08-30T06:05:36.430Z,100158.20
2022-08-30T06:06:40.795Z,100147.49
2022-08-30T06:07:43.107Z,100154.12
2022-08-30T06:08:45.824Z,100155.05
2022-08-30T06:09:48.232Z,100149.37
2022-08-30T06:10:50.858Z,100150.95
2022-08-30T06:11:53.240Z,100156.50
2022-08-30T06:12:55.425Z,100152.12
2022-08-30T06:13:57.676Z,100153.62
2022-08-30T06:14:59.857Z,100145.73
2022-08-30T06:16:03.183Z,100149.37
2022-08-30T06:17:06.348Z,100145.30
2022-08-30T06:18:09.094Z,100138.24
2022-08-30T06:19:13.168Z,100145.24
2022-08-30T06:20:16.272Z,100149.44
2022-08-30T06:21:24.763Z,100131.80
2022-08-30T06:22:27.216Z,100146.96
2022-08-30T06:23:29.493Z,100132.83
2022-08-30T06:24:54.010Z,100135.67
2022-08-30T06:25:41.117Z,100136.20
2022-08-30T06:26:44.872Z,100137.20
2022-08-30T06:27:47.545Z,100131.47
2022-08-30T06:28:50.210Z,100139.38
2022-08-30T06:29:53.088Z,100139.38
2022-08-30T06:30:55.950Z,100132.98
2022-08-30T06:31:58.444Z,100086.03
2022-08-30T06:33:01.207Z,100140.75
2022-08-30T06:34:04.648Z,100133.83
2022-08-30T06:35:08.687Z,100147.86
2022-08-30T06:36:14.885Z,100139.58
2022-08-30T06:37:24.684Z,100148.18
2022-08-30T06:38:21.517Z,100133.91
2022-08-30T06:39:23.838Z,100120.78
2022-08-30T06:40:28.019Z,100145.38
2022-08-30T06:41:33.044Z,100145.38
2022-08-30T06:42:35.540Z,100138.67
2022-08-30T06:43:37.862Z,100128.92
2022-08-30T06:44:40.113Z,100134.53
2022-08-30T06:45:44.490Z,100134.64
2022-08-30T06:46:47.133Z,100143.69
2022-08-30T06:47:49.506Z,100143.17
2022-08-30T06:48:52.852Z,100143.87
2022-08-30T06:49:57.873Z,100150.15
2022-08-30T06:51:01.069Z,100146.35
2022-08-30T06:52:03.478Z,100153.16
2022-08-30T06:53:05.932Z,100153.23
2022-08-30T06:54:11.999Z,100154.34
2022-08-30T06:55:16.268Z,100148.19
2022-08-30T06:56:19.876Z,100152.84
2022-08-30T06:57:26.479Z,100143.34
2022-08-30T06:58:30.209Z,100150.48
2022-08-30T06:59:32.485Z,100153.95
2022-08-30T07:00:35.166Z,100140.12
2022-08-30T07:01:39.387Z,100138.63
2022-08-30T07:02:42.497Z,100148.43
2022-08-30T07:03:44.791Z,100141.02
2022-08-30T07:04:47.079Z,100139.94
2022-08-30T07:05:49.961Z,100149.88
2022-08-30T07:06:52.644Z,100152.27
2022-08-30T07:07:54.952Z,100146.73
2022-08-30T07:08:57.447Z,100144.56
2022-08-30T07:10:03.322Z,100157.72
2022-08-30T07:11:06.838Z,100158.58
2022-08-30T07:12:10.434Z,100149.92
2022-08-30T07:13:13.013Z,100158.67
2022-08-30T07:14:16.805Z,100158.59
2022-08-30T07:15:19.111Z,100152.63
2022-08-30T07:16:21.694Z,100144.16
2022-08-30T07:17:24.089Z,100143.97
2022-08-30T07:18:26.441Z,100150.75
2022-08-30T07:19:28.608Z,100153.70
2022-08-30T07:20:39.793Z,100149.47
2022-08-30T07:21:39.107Z,100148.49
2022-08-30T07:22:41.780Z,100155.55
2022-08-30T07:23:49.249Z,100161.02
2022-08-30T07:24:51.160Z,100145.30
2022-08-30T07:25:53.421Z,100155.28
2022-08-30T07:26:55.935Z,100155.37
2022-08-30T07:27:58.306Z,100156.73
2022-08-30T07:29:01.371Z,100146.73
2022-08-30T07:30:06.610Z,100149.16
2022-08-30T07:31:12.680Z,100153.23
2022-08-30T07:32:14.866Z,100157.09
2022-08-30T07:33:17.247Z,100151.44
2022-08-30T07:34:20.608Z,100157.27
2022-08-30T07:35:23.863Z,100148.55
2022-08-30T07:36:26.398Z,100141.06
2022-08-30T07:37:28.687Z,100155.95
2022-08-30T07:38:31.541Z,100159.74
2022-08-30T07:39:39.179Z,100159.36
2022-08-30T07:40:39.152Z,100156.85
2022-08-30T07:41:41.599Z,100140.58
2022-08-30T07:42:44.226Z,100154.12
2022-08-30T07:43:47.658Z,100151.92
2022-08-30T07:44:51.834Z,100154.07
2022-08-30T07:45:54.016Z,100150.67
2022-08-30T07:46:56.698Z,100163.96
2022-08-30T07:47:58.999Z,100152.47
2022-08-30T07:49:01.995Z,100157.14
2022-08-30T07:50:07.851Z,100148.72
2022-08-30T07:51:12.937Z,100160.50
2022-08-30T07:52:15.065Z,100161.07
2022-08-30T07:53:17.384Z,100165.66
2022-08-30T07:54:19.877Z,100156.97
2022-08-30T07:55:22.195Z,100158.75
2022-08-30T07:56:26.126Z,100105.58
2022-08-30T07:57:28.484Z,100159.41
2022-08-30T07:58:32.534Z,100157.92
2022-08-30T07:59:36.225Z,100158.14
2022-08-30T08:00:38.857Z,100151.51
2022-08-30T08:01:41.203Z,100154.79
2022-08-30T08:02:44.207Z,100153.41
2022-08-30T08:03:46.872Z,100149.10
2022-08-30T08:04:49.135Z,100155.75
2022-08-30T08:05:51.856Z,100154.63
2022-08-30T08:06:54.171Z,100158.36
2022-08-30T08:07:56.561Z,100158.66
2022-08-30T08:08:58.931Z,100152.19
2022-08-30T08:10:01.881Z,100152.92
2022-08-30T08:11:16.075Z,100152.92
2022-08-30T08:12:18.760Z,100149.02
2022-08-30T08:13:21.274Z,100150.49
2022-08-30T08:14:23.491Z,100154.08
2022-08-30T08:15:27.499Z,100153.66
2022-08-30T08:16:32.486Z,100141.63
2022-08-30T08:17:34.824Z,100149.84
2022-08-30T08:18:37.560Z,100148.34
2022-08-30T08:19:40.074Z,100153.13
2022-08-30T08:20:44.331Z,100147.06
2022-08-30T08:21:46.739Z,100146.34
2022-08-30T08:22:49.296Z,100131.36
2022-08-30T08:23:51.632Z,100147.41
2022-08-30T08:24:53.998Z,100145.08
2022-08-30T08:25:56.623Z,100145.66
2022-08-30T08:26:59.594Z,100138.83
2022-08-30T08:28:02.099Z,100141.89
2022-08-30T08:29:06.710Z,100134.97
2022-08-30T08:30:10.158Z,100136.80
2022-08-30T08:31:16.262Z,100148.91
2022-08-30T08:32:18.921Z,100140.19
2022-08-30T08:33:23.428Z,100147.59
2022-08-30T08:34:26.225Z,100148.36
2022-08-30T08:35:29.179Z,100146.72
2022-08-30T08:36:32.938Z,100140.27
2022-08-30T08:37:35.688Z,100144.00
2022-08-30T08:38:37.929Z,100137.37
2022-08-30T08:39:40.900Z,100137.48
2022-08-30T08:40:50.041Z,100142.47
2022-08-30T08:42:24.364Z,100144.08
2022-08-30T08:43:27.233Z,100153.16
2022-08-30T08:44:42.246Z,100151.41
2022-08-30T08:46:15.743Z,100145.73
2022-08-30T08:47:37.860Z,100149.36
2022-08-30T08:48:59.461Z,100141.91
2022-08-30T08:49:54.041Z,100143.30
2022-08-30T08:51:00.719Z,100143.67
2022-08-30T08:52:04.716Z,100144.47
2022-08-30T08:53:20.614Z,100146.28
2022-08-30T08:54:33.635Z,100139.41
2022-08-30T08:55:39.611Z,100138.12
2022-08-30T08:56:42.215Z,100142.64
2022-08-30T08:57:44.637Z,100125.16
2022-08-30T08:58:53.036Z,100128.75
2022-08-30T08:59:55.467Z,100136.11
2022-08-30T09:00:58.664Z,100133.70
2022-08-30T09:02:03.481Z,100134.52
2022-08-30T09:03:07.597Z,100141.89
2022-08-30T09:04:20.843Z,100131.89
2022-08-30T09:05:26.259Z,100137.61
2022-08-30T09:06:49.286Z,100132.72
2022-08-30T09:07:57.866Z,100136.50
2022-08-30T09:09:00.423Z,100134.61
2022-08-30T09:10:04.112Z,100124.58
2022-08-30T09:11:07.494Z,100124.66
2022-08-30T09:12:11.746Z,100126.50
2022-08-30T09:13:14.169Z,100136.95
2022-08-30T09:15:54.718Z,100132.55
2022-08-30T09:17:07.781Z,100126.94
2022-08-30T09:18:18.938Z,100126.88
2022-08-30T09:19:37.237Z,100131.55
2022-08-30T09:20:43.231Z,100125.03
2022-08-30T09:21:49.961Z,100140.78
2022-08-30T09:22:54.913Z,100125.54
2022-08-30T09:24:00.742Z,100135.73
2022-08-30T09:25:25.042Z,100144.95
2022-08-30T09:27:43.872Z,100141.25
2022-08-30T09:28:50.558Z,100138.69
2022-08-30T09:31:22.121Z,100128.64
2022-08-30T09:32:32.193Z,100134.76
2022-08-30T09:33:34.595Z,100134.66
2022-08-30T09:34:36.972Z,100136.66
2022-08-30T09:35:46.137Z,100132.98
2022-08-30T09:36:53.767Z,100133.78
2022-08-30T09:37:59.247Z,100128.60
2022-08-30T09:39:05.448Z,100135.02
2022-08-30T09:40:15.034Z,100137.04
2022-08-30T09:41:39.114Z,100136.34
2022-08-30T09:42:46.440Z,100141.13
2022-08-30T09:44:09.099Z,100130.16
2022-08-30T09:45:21.110Z,100134.22
2022-08-30T09:46:25.313Z,100136.20
2022-08-30T09:47:31.383Z,100129.09
2022-08-30T09:48:37.879Z,100136.28
2022-08-30T09:49:44.698Z,100144.20
2022-08-30T09:50:50.587Z,100135.73
2022-08-30T09:52:19.704Z,100136.50
2022-08-30T09:53:25.462Z,100140.41
2022-08-30T09:54:34.426Z,100129.78
2022-08-30T09:55:58.125Z,100124.41
2022-08-30T09:57:11.635Z,100130.35
2022-08-30T09:58:31.772Z,100133.78
2022-08-30T09:59:40.597Z,100141.92
2022-08-30T10:00:52.534Z,100125.22
2022-08-30T10:02:15.435Z,100133.17
2022-08-30T10:03:36.183Z,100136.86
2022-08-30T10:04:39.665Z,100135.44
2022-08-30T10:06:07.118Z,100132.37
2022-08-30T10:08:41.934Z,100123.52
2022-08-30T10:09:55.699Z,100116.89
2022-08-30T10:11:20.026Z,100136.73
2022-08-30T10:12:37.443Z,100133.88
2022-08-30T10:14:08.023Z,100126.55
2022-08-30T10:15:23.014Z,100136.91
2022-08-30T10:16:46.876Z,100135.47
2022-08-30T10:17:56.398Z,100134.38
2022-08-30T10:19:09.625Z,100141.47
2022-08-30T10:20:13.650Z,100128.96
2022-08-30T10:21:20.715Z,100131.86
2022-08-30T10:22:26.145Z,100137.97
2022-08-30T10:23:30.028Z,100133.89
2022-08-30T10:24:34.388Z,100132.45
2022-08-30T10:25:38.556Z,100129.02
2022-08-30T10:26:45.096Z,100130.80
2022-08-30T10:27:56.068Z,100121.73
2022-08-30T10:29:00.417Z,100135.10
2022-08-30T10:30:07.838Z,100136.80
2022-08-30T10:31:12.185Z,100140.39
2022-08-30T10:32:16.071Z,100125.05
2022-08-30T10:33:19.938Z,100131.26
2022-08-30T10:34:29.674Z,100139.02
2022-08-30T10:35:42.594Z,100128.70
2022-08-30T10:36:54.021Z,100125.48
2022-08-30T10:38:09.953Z,100133.14
2022-08-30T10:39:14.902Z,100122.82
2022-08-30T10:40:19.171Z,100124.28
2022-08-30T10:41:27.652Z,100128.39
2022-08-30T10:42:31.751Z,100124.16
2022-08-30T10:43:38.683Z,100124.47
2022-08-30T10:44:45.204Z,100126.23
2022-08-30T10:45:48.654Z,100124.36
2022-08-30T10:47:09.640Z,100123.55
2022-08-30T10:48:25.835Z,100122.78
2022-08-30T10:49:29.631Z,100119.48
2022-08-30T10:50:38.432Z,100120.48
2022-08-30T10:51:51.555Z,100119.81
2022-08-30T10:52:58.584Z,100119.21
2022-08-30T10:54:08.179Z,100119.84
2022-08-30T10:55:16.673Z,100141.25
2022-08-30T10:56:20.983Z,100124.73
2022-08-30T10:57:24.035Z,100119.05
2022-08-30T10:58:28.186Z,100114.58
2022-08-30T10:59:31.040Z,100112.22
2022-08-30T11:02:05.766Z,100117.89
2022-08-30T11:03:12.876Z,100130.47
2022-08-30T11:04:20.218Z,100117.13
2022-08-30T11:05:30.337Z,100122.66
2022-08-30T11:06:34.550Z,100112.85
2022-08-30T11:07:52.270Z,100119.37
2022-08-30T11:08:56.166Z,100109.62
2022-08-30T11:09:59.942Z,100112.09
2022-08-30T11:11:03.656Z,100102.97
2022-08-30T11:12:23.136Z,100110.63
2022-08-30T11:13:27.879Z,100113.10
2022-08-30T11:14:30.179Z,100109.84
2022-08-30T11:15:34.227Z,100105.41
2022-08-30T11:16:38.896Z,100102.37
2022-08-30T11:17:42.756Z,100102.75
2022-08-30T11:18:51.123Z,100104.83
2022-08-30T11:19:55.278Z,100103.32
2022-08-30T11:21:17.722Z,100103.00
2022-08-30T11:22:24.329Z,100100.30
2022-08-30T11:23:29.020Z,100102.37
2022-08-30T11:24:33.810Z,100079.28
2022-08-30T11:25:46.988Z,100097.86
2022-08-30T11:26:52.999Z,100084.91
2022-08-30T11:27:55.703Z,100097.18
2022-08-30T11:28:59.914Z,100100.96
2022-08-30T11:30:03.891Z,100094.41
2022-08-30T11:31:10.683Z,100095.39
2022-08-30T11:32:14.754Z,100101.16
2022-08-30T11:33:24.394Z,100101.28
2022-08-30T11:34:46.336Z,100103.95
2022-08-30T11:35:50.579Z,100101.31
2022-08-30T11:36:54.934Z,100093.21
2022-08-30T11:37:57.206Z,100074.33
2022-08-30T11:39:01.367Z,100094.66
2022-08-30T11:40:05.295Z,100094.22
2022-08-30T11:41:09.487Z,100097.77
2022-08-30T11:42:14.659Z,100099.03
2022-08-30T11:43:21.158Z,100091.23
2022-08-30T11:44:26.863Z,100096.55
2022-08-30T11:45:31.301Z,100096.23
2022-08-30T11:46:35.817Z,100096.31
2022-08-30T11:47:39.680Z,100092.63
2022-08-30T11:48:53.505Z,100095.48
2022-08-30T11:49:55.660Z,100098.88
2022-08-30T11:50:59.575Z,100092.33
2022-08-30T11:52:27.741Z,100092.42
2022-08-30T11:53:15.130Z,100089.13
2022-08-30T11:54:36.110Z,100088.84
2022-08-30T11:55:49.593Z,100091.75
2022-08-30T11:56:54.604Z,100085.45
2022-08-30T11:58:18.265Z,100100.58
2022-08-30T11:59:22.411Z,100098.09
2022-08-30T12:00:29.963Z,100094.73
2022-08-30T12:01:51.116Z,100100.41
2022-08-30T12:02:40.999Z,100086.45
2022-08-30T12:03:43.525Z,100092.81
2022-08-30T12:04:46.480Z,100092.30
2022-08-30T12:06:02.502Z,100092.30
2022-08-30T12:07:06.417Z,100087.44
2022-08-30T12:08:24.205Z,100087.83
2022-08-30T12:09:28.565Z,100080.83
2022-08-30T12:10:39.267Z,100087.38
2022-08-30T12:11:52.591Z,100076.77
2022-08-30T12:12:55.256Z,100088.45
2022-08-30T12:13:57.596Z,100095.78
2022-08-30T12:14:59.588Z,100080.44
2022-08-30T12:16:03.428Z,100076.77
2022-08-30T12:17:16.104Z,100087.59
2022-08-30T12:18:20.116Z,100076.38
2022-08-30T12:19:22.996Z,100074.96
2022-08-30T12:20:30.503Z,100070.55
2022-08-30T12:21:43.854Z,100074.05
2022-08-30T12:22:38.366Z,100073.52
2022-08-30T12:23:57.257Z,100082.73
2022-08-30T12:24:59.177Z,100075.59
2022-08-30T12:26:12.796Z,100070.16
2022-08-30T12:27:26.096Z,100083.64
2022-08-30T12:28:28.175Z,100079.77
2022-08-30T12:29:30.623Z,100080.48
2022-08-30T12:30:34.807Z,100085.92
2022-08-30T12:31:44.491Z,100079.62